Time;durP1;ratioP1;P1;durP2;ratioP2;P2;SDS_P1;SDS_P2;PMS_P1;PMS_P2;Temp;Humidity;BMP_temperature;BMP_pressure;BME280_temperature;BME280_humidity;BME280_pressure;Samples;Min_cycle;Max_cycle;Signal;HPM_P1;HPM_P2
2023/04/08 00:01:46;;;;;;;9.30;7.17;;;;;;;6.88;100.00;96353.88;5015103;28;104694;-65
2023/04/08 00:04:13;;;;;;;8.03;7.23;;;;;;;6.90;100.00;96354.44;5045711;27;101888;-65
2023/04/08 00:06:41;;;;;;;7.90;7.10;;;;;;;6.87;100.00;96360.22;5012261;28;105258;-65
2023/04/08 00:09:08;;;;;;;8.07;7.27;;;;;;;6.83;100.00;96354.53;5011219;28;105897;-64
2023/04/08 00:11:36;;;;;;;7.33;6.57;;;;;;;6.73;100.00;96354.31;5013523;28;101823;-65
2023/04/08 00:14:05;;;;;;;8.57;7.67;;;;;;;6.57;100.00;96357.63;5012274;28;105072;-65
2023/04/08 00:16:32;;;;;;;11.70;8.47;;;;;;;6.60;100.00;96362.44;5013010;28;102972;-65
2023/04/08 00:18:59;;;;;;;16.77;11.63;;;;;;;6.59;100.00;96358.19;5011607;28;102029;-65
2023/04/08 00:21:26;;;;;;;11.73;8.57;;;;;;;6.54;100.00;96358.06;5010502;28;104809;-65
2023/04/08 00:23:53;;;;;;;9.53;8.13;;;;;;;6.43;100.00;96371.25;5014462;28;105244;-65
2023/04/08 00:26:21;;;;;;;10.57;8.20;;;;;;;6.26;100.00;96363.13;5045441;27;104145;-65
2023/04/08 00:28:49;;;;;;;8.80;7.90;;;;;;;6.14;100.00;96364.09;5011244;28;104995;-65
2023/04/08 00:31:17;;;;;;;8.90;7.47;;;;;;;6.17;100.00;96363.66;5011895;28;102433;-64
2023/04/08 00:33:44;;;;;;;10.77;8.37;;;;;;;6.12;100.00;96363.53;5011716;28;104971;-64
2023/04/08 00:36:11;;;;;;;8.90;7.60;;;;;;;6.03;100.00;96368.31;5044990;27;105143;-65
2023/04/08 00:38:39;;;;;;;8.07;6.70;;;;;;;5.94;100.00;96374.13;5011680;28;101862;-64
2023/04/08 00:41:06;;;;;;;9.97;7.57;;;;;;;5.81;100.00;96374.25;5011338;28;104849;-65
2023/04/08 00:43:34;;;;;;;8.10;6.90;;;;;;;5.82;100.00;96381.16;5048215;27;105281;-65
2023/04/08 00:46:02;;;;;;;8.10;7.00;;;;;;;5.73;100.00;96371.91;5011727;28;104924;-64
2023/04/08 00:48:31;;;;;;;11.33;8.00;;;;;;;5.66;100.00;96371.16;5011232;28;105765;-64
2023/04/08 00:50:58;;;;;;;9.20;7.90;;;;;;;5.71;100.00;96374.75;5011111;28;101836;-64
2023/04/08 00:53:25;;;;;;;9.40;7.53;;;;;;;5.42;100.00;96379.94;5011534;28;104908;-64
2023/04/08 00:55:52;;;;;;;8.80;7.30;;;;;;;5.32;100.00;96382.28;5010586;28;105406;-64
2023/04/08 00:58:19;;;;;;;8.10;7.30;;;;;;;5.38;100.00;96376.94;5011468;28;101772;-65
2023/04/08 01:00:55;;;;;;;7.60;6.80;;;;;;;5.25;100.00;96378.91;5045118;27;105058;-65
2023/04/08 01:03:30;;;;;;;8.53;7.23;;;;;;;4.91;100.00;96377.56;5010406;28;105580;-64
2023/04/08 01:06:07;;;;;;;8.43;7.57;;;;;;;5.04;100.00;96379.28;5014857;28;101854;-64
2023/04/08 01:08:38;;;;;;;9.17;7.97;;;;;;;5.19;100.00;96374.50;5010703;28;105546;-64
2023/04/08 01:11:09;;;;;;;7.97;6.83;;;;;;;5.20;100.00;96378.75;5010294;28;101988;-64
2023/04/08 01:13:40;;;;;;;9.43;7.40;;;;;;;5.15;100.00;96373.31;5010937;28;105038;-64
2023/04/08 01:16:11;;;;;;;8.13;7.33;;;;;;;5.20;100.00;96376.09;5010517;28;105357;-64
2023/04/08 01:18:39;;;;;;;8.53;7.70;;;;;;;5.28;100.00;96378.44;5044806;27;101851;-64
2023/04/08 01:21:08;;;;;;;9.03;7.50;;;;;;;5.29;100.00;96374.81;5010669;28;104058;-65
2023/04/08 01:23:46;;;;;;;7.83;7.00;;;;;;;5.28;100.00;96378.44;5010232;28;104070;-65
2023/04/08 01:26:24;;;;;;;8.87;6.93;;;;;;;5.43;100.00;96381.56;5010785;28;101775;-65
2023/04/08 01:28:54;;;;;;;7.77;6.70;;;;;;;5.24;100.00;96388.63;5013874;28;105562;-64
2023/04/08 01:31:24;;;;;;;7.70;6.90;;;;;;;5.34;100.00;96382.88;5010801;28;102005;-65
2023/04/08 01:33:52;;;;;;;8.00;7.20;;;;;;;5.25;100.00;96384.97;5011006;28;105234;-64
2023/04/08 01:36:21;;;;;;;7.63;6.87;;;;;;;5.28;100.00;96383.72;5043862;27;105814;-65
2023/04/08 01:38:49;;;;;;;8.13;6.93;;;;;;;5.38;100.00;96384.03;5010365;28;101838;-64
2023/04/08 01:41:20;;;;;;;8.87;6.53;;;;;;;5.38;100.00;96390.13;5010906;28;105538;-64
2023/04/08 01:43:48;;;;;;;8.30;6.97;;;;;;;5.41;100.00;96379.13;5010168;28;105812;-65
2023/04/08 01:46:15;;;;;;;8.40;6.90;;;;;;;5.51;100.00;96381.28;5010452;28;101703;-64
2023/04/08 01:48:43;;;;;;;7.73;6.97;;;;;;;5.59;100.00;96380.97;5010836;28;104033;-64
2023/04/08 01:51:11;;;;;;;8.60;6.70;;;;;;;5.62;100.00;96377.91;5047190;27;105016;-64
2023/04/08 01:53:38;;;;;;;7.47;6.67;;;;;;;5.65;100.00;96380.09;5010466;28;104839;-64
2023/04/08 01:56:09;;;;;;;7.70;6.90;;;;;;;5.63;100.00;96372.41;5009984;28;105506;-64
2023/04/08 01:58:42;;;;;;;7.80;7.07;;;;;;;5.73;100.00;96379.81;5010211;28;101893;-65
2023/04/08 02:01:12;;;;;;;8.23;7.43;;;;;;;5.78;100.00;96379.97;5010398;28;104750;-64
2023/04/08 02:03:40;;;;;;;6.83;6.17;;;;;;;5.84;100.00;96379.91;5009679;28;105661;-65
2023/04/08 02:06:07;;;;;;;7.23;6.40;;;;;;;5.82;100.00;96376.69;5010291;28;101815;-64
2023/04/08 02:08:35;;;;;;;7.00;6.30;;;;;;;5.85;100.00;96378.09;5043924;27;104853;-64
2023/04/08 02:11:02;;;;;;;7.17;6.47;;;;;;;5.85;100.00;96378.09;5010801;28;102722;-65
2023/04/08 02:13:32;;;;;;;7.10;6.47;;;;;;;5.83;100.00;96377.50;5013733;28;102021;-65
2023/04/08 02:16:06;;;;;;;9.33;6.93;;;;;;;5.87;100.00;96384.75;5009802;28;105784;-64
2023/04/08 02:18:36;;;;;;;8.37;6.60;;;;;;;5.83;100.00;96382.78;5043927;27;102056;-65
2023/04/08 02:21:10;;;;;;;7.77;6.97;;;;;;;5.89;100.00;96374.78;5010865;28;102517;-65
2023/04/08 02:23:39;;;;;;;7.27;6.57;;;;;;;5.89;100.00;96376.63;5008783;28;104757;-65
2023/04/08 02:26:09;;;;;;;6.90;6.20;;;;;;;5.88;100.00;96375.81;5010069;28;101894;-64
2023/04/08 02:28:37;;;;;;;7.13;6.43;;;;;;;5.92;100.00;96376.97;5043660;27;104116;-65
2023/04/08 02:31:08;;;;;;;8.83;6.57;;;;;;;5.96;100.00;96377.34;5010630;28;102595;-64
2023/04/08 02:33:35;;;;;;;7.20;6.50;;;;;;;5.96;100.00;96382.63;5011163;28;101718;-65
2023/04/08 02:36:04;;;;;;;7.00;6.30;;;;;;;5.97;100.00;96379.75;5012673;28;104988;-64
2023/04/08 02:38:31;;;;;;;7.57;6.83;;;;;;;5.98;100.00;96384.00;5009835;28;102305;-64
2023/04/08 02:40:58;;;;;;;7.33;6.57;;;;;;;6.01;100.00;96386.19;5043407;27;105940;-65
2023/04/08 02:43:30;;;;;;;7.10;6.40;;;;;;;6.01;100.00;96378.28;5009128;28;105813;-64
2023/04/08 02:45:58;;;;;;;7.00;6.30;;;;;;;6.02;100.00;96390.47;5011257;28;101801;-64
2023/04/08 02:48:26;;;;;;;6.80;6.20;;;;;;;6.01;100.00;96388.81;5009675;28;105675;-65
2023/04/08 02:50:54;;;;;;;6.70;5.80;;;;;;;6.04;100.00;96387.56;5008946;28;105757;-65
2023/04/08 02:53:22;;;;;;;6.87;6.17;;;;;;;6.08;100.00;96380.84;5009498;28;101914;-64
2023/04/08 02:55:49;;;;;;;7.53;6.60;;;;;;;6.03;100.00;96378.88;5012481;28;103746;-64
2023/04/08 02:58:16;;;;;;;6.73;5.60;;;;;;;6.03;100.00;96388.63;5011072;28;102155;-64
2023/04/08 03:00:43;;;;;;;7.43;6.00;;;;;;;6.02;100.00;96379.91;5011026;28;102446;-64
2023/04/08 03:03:09;;;;;;;6.97;6.23;;;;;;;6.05;100.00;96378.66;5010171;28;102561;-64
2023/04/08 03:05:38;;;;;;;6.63;5.97;;;;;;;6.02;100.00;96374.63;5010715;28;102066;-64
2023/04/08 03:08:06;;;;;;;6.70;5.90;;;;;;;6.03;100.00;96378.88;5010547;28;101679;-64
2023/04/08 03:10:33;;;;;;;7.43;6.50;;;;;;;6.01;100.00;96385.41;5009029;28;105398;-65
2023/04/08 03:13:01;;;;;;;6.77;6.07;;;;;;;5.98;100.00;96388.47;5010971;28;101780;-65
2023/04/08 03:15:27;;;;;;;7.67;6.13;;;;;;;5.94;100.00;96393.38;5009493;28;104092;-64
2023/04/08 03:17:55;;;;;;;6.47;5.87;;;;;;;5.94;100.00;96389.97;5012099;28;105283;-64
2023/04/08 03:20:22;;;;;;;6.67;6.07;;;;;;;5.98;100.00;96399.03;5010070;28;102883;-64
2023/04/08 03:22:50;;;;;;;8.00;7.20;;;;;;;6.00;100.00;96392.50;5010059;28;102594;-64
2023/04/08 03:25:17;;;;;;;8.03;7.20;;;;;;;6.05;100.00;96394.50;5009191;28;101977;-64
2023/04/08 03:27:44;;;;;;;6.87;6.20;;;;;;;5.97;100.00;96389.50;5010438;28;102278;-65
2023/04/08 03:30:11;;;;;;;7.07;6.13;;;;;;;5.93;100.00;96394.41;5008563;28;102722;-64
2023/04/08 03:32:38;;;;;;;6.97;5.97;;;;;;;5.95;100.00;96396.84;5010497;28;101839;-64
2023/04/08 03:35:06;;;;;;;7.13;6.10;;;;;;;5.95;100.00;96392.34;5009437;28;102807;-64
2023/04/08 03:37:32;;;;;;;8.10;6.57;;;;;;;5.93;100.00;96391.78;5009979;28;102521;-65
2023/04/08 03:40:01;;;;;;;7.40;6.70;;;;;;;5.88;100.00;96394.28;5012617;28;101838;-64
2023/04/08 03:42:28;;;;;;;7.20;6.50;;;;;;;5.89;100.00;96395.88;5009593;28;102587;-64
2023/04/08 03:44:54;;;;;;;7.77;6.27;;;;;;;5.90;100.00;96397.50;5010310;28;102016;-64
2023/04/08 03:47:21;;;;;;;7.60;6.30;;;;;;;5.92;100.00;96399.91;5010289;28;102353;-65
2023/04/08 03:49:48;;;;;;;7.13;6.40;;;;;;;5.90;100.00;96394.84;5009645;28;102549;-64
2023/04/08 03:52:15;;;;;;;6.83;6.13;;;;;;;5.88;100.00;96404.81;5009921;28;101903;-64
2023/04/08 03:54:43;;;;;;;7.30;6.27;;;;;;;5.92;100.00;96406.00;5010554;28;102567;-64
2023/04/08 03:57:12;;;;;;;7.13;6.43;;;;;;;5.92;100.00;96402.56;5008373;28;103792;-64
2023/04/08 03:59:40;;;;;;;7.20;6.50;;;;;;;5.91;100.00;96401.75;5009925;28;101835;-64
2023/04/08 04:02:07;;;;;;;6.90;6.17;;;;;;;5.91;100.00;96400.94;5012609;28;102419;-64
2023/04/08 04:04:35;;;;;;;7.47;6.30;;;;;;;5.90;100.00;96399.34;5009851;28;102211;-64
2023/04/08 04:07:03;;;;;;;6.77;6.07;;;;;;;5.87;100.00;96399.75;5010081;28;102460;-64
2023/04/08 04:09:30;;;;;;;7.30;6.37;;;;;;;5.90;100.00;96409.91;5009350;28;102484;-64
2023/04/08 04:11:57;;;;;;;7.03;6.33;;;;;;;5.86;100.00;96411.34;5042137;27;101863;-64
2023/04/08 04:14:29;;;;;;;7.47;5.93;;;;;;;5.88;100.00;96414.56;5009904;28;102295;-64
2023/04/08 04:16:56;;;;;;;7.43;6.73;;;;;;;5.95;100.00;96413.47;5007842;28;105490;-64
2023/04/08 04:19:23;;;;;;;6.77;6.07;;;;;;;5.92;100.00;96418.38;5009755;28;101853;-64
2023/04/08 04:21:50;;;;;;;6.77;6.17;;;;;;;5.91;100.00;96414.16;5009494;28;102353;-65
2023/04/08 04:24:17;;;;;;;6.97;6.10;;;;;;;5.90;100.00;96413.31;5012442;28;103411;-64
2023/04/08 04:26:44;;;;;;;7.20;6.50;;;;;;;5.92;100.00;96421.03;5010033;28;102546;-64
2023/04/08 04:29:11;;;;;;;6.77;5.80;;;;;;;5.96;100.00;96416.94;5007502;28;105292;-64
2023/04/08 04:31:39;;;;;;;7.60;6.43;;;;;;;5.96;100.00;96422.22;5009675;28;102053;-65
2023/04/08 04:34:08;;;;;;;7.07;6.37;;;;;;;5.94;100.00;96421.63;5008803;28;101713;-64
2023/04/08 04:36:35;;;;;;;7.23;6.53;;;;;;;5.94;100.00;96427.69;5041226;27;105169;-64
2023/04/08 04:39:02;;;;;;;7.63;6.30;;;;;;;5.93;100.00;96420.00;5008473;28;101938;-65
2023/04/08 04:41:29;;;;;;;6.83;6.13;;;;;;;5.94;100.00;96419.00;5008373;28;105675;-65
2023/04/08 04:43:57;;;;;;;7.90;6.60;;;;;;;6.00;100.00;96426.81;5007602;28;104313;-64
2023/04/08 04:46:24;;;;;;;8.20;6.13;;;;;;;6.03;100.00;96425.56;5014561;28;101693;-65
2023/04/08 04:48:53;;;;;;;6.33;5.73;;;;;;;6.03;100.00;96426.38;5044269;27;105547;-65
2023/04/08 04:51:20;;;;;;;7.33;6.20;;;;;;;6.11;100.00;96425.28;5011663;28;101957;-64
2023/04/08 04:53:48;;;;;;;7.03;6.33;;;;;;;6.14;100.00;96427.47;5012824;28;102392;-64
2023/04/08 04:56:14;;;;;;;8.20;7.03;;;;;;;6.16;100.00;96428.84;5010720;28;105199;-64
2023/04/08 04:58:42;;;;;;;8.97;7.70;;;;;;;6.17;100.00;96433.09;5011547;28;102372;-64
2023/04/08 05:01:08;;;;;;;7.87;7.13;;;;;;;6.22;100.00;96435.09;5011205;28;105104;-64
2023/04/08 05:03:35;;;;;;;8.73;7.87;;;;;;;6.27;100.00;96443.16;5010528;28;105374;-64
2023/04/08 05:06:04;;;;;;;9.23;7.53;;;;;;;6.29;100.00;96433.19;5048638;27;102041;-64
2023/04/08 05:08:31;;;;;;;8.07;7.13;;;;;;;6.30;100.00;96434.78;5012041;28;102679;-65
2023/04/08 05:11:01;;;;;;;7.60;6.80;;;;;;;6.33;100.00;96435.13;5011650;28;101791;-65
2023/04/08 05:13:29;;;;;;;7.63;6.83;;;;;;;6.33;100.00;96437.78;5012768;28;102505;-64
2023/04/08 05:15:57;;;;;;;7.37;6.63;;;;;;;6.29;100.00;96439.28;5044412;27;105544;-65
2023/04/08 05:18:23;;;;;;;8.63;7.00;;;;;;;6.26;100.00;96446.81;5011285;28;101891;-65
2023/04/08 05:20:50;;;;;;;25.43;13.60;;;;;;;6.25;100.00;96450.47;5011086;28;104151;-64
2023/04/08 05:23:29;;;;;;;22.20;13.10;;;;;;;6.16;100.00;96447.34;5043576;27;103756;-64
2023/04/08 05:25:56;;;;;;;12.27;8.13;;;;;;;6.10;100.00;96448.22;5010378;28;101828;-64
2023/04/08 05:28:23;;;;;;;7.70;6.57;;;;;;;6.01;100.00;96454.03;5013931;28;105387;-64
2023/04/08 05:30:51;;;;;;;6.80;6.20;;;;;;;5.95;100.00;96449.63;5011036;28;101901;-64
2023/04/08 05:36:42;;;;;;;9.27;7.37;;;;;;;6.02;100.00;96455.63;5010675;28;103962;-64
2023/04/08 05:39:11;;;;;;;8.47;7.67;;;;;;;6.03;100.00;96455.41;5011149;28;102000;-64
2023/04/08 05:41:37;;;;;;;8.43;7.63;;;;;;;6.07;100.00;96453.16;5010902;28;105365;-65
2023/04/08 05:44:31;;;;;;;8.60;7.80;;;;;;;6.12;100.00;96459.34;5010372;28;105019;-65
2023/04/08 05:46:59;;;;;;;8.53;6.87;;;;;;;6.10;100.00;96461.44;5011035;28;101937;-65
2023/04/08 05:49:26;;;;;;;7.50;6.80;;;;;;;6.13;100.00;96463.63;5010905;28;104863;-65
2023/04/08 05:51:52;;;;;;;7.97;7.27;;;;;;;6.19;100.00;96461.94;5013951;28;105180;-65
2023/04/08 05:54:37;;;;;;;8.73;7.07;;;;;;;6.16;100.00;96470.31;5010707;28;104873;-65
2023/04/08 05:57:05;;;;;;;7.17;6.20;;;;;;;6.13;100.00;96470.75;5010002;28;105843;-65
2023/04/08 05:59:32;;;;;;;7.33;6.63;;;;;;;6.12;100.00;96474.41;5043971;27;101961;-64
2023/04/08 06:01:59;;;;;;;7.73;6.57;;;;;;;6.12;100.00;96474.41;5011077;28;104925;-65
2023/04/08 06:04:30;;;;;;;7.30;6.60;;;;;;;6.10;100.00;96471.16;5009903;28;105223;-65
2023/04/08 06:07:01;;;;;;;7.07;6.37;;;;;;;6.12;100.00;96471.78;5010709;28;101788;-65
2023/04/08 06:09:28;;;;;;;8.33;6.63;;;;;;;6.10;100.00;96479.91;5010577;28;105284;-65
2023/04/08 06:11:56;;;;;;;7.23;6.43;;;;;;;6.12;100.00;96479.69;5011187;28;102934;-65
2023/04/08 06:14:32;;;;;;;7.20;6.50;;;;;;;6.14;100.00;96475.00;5013809;28;101862;-65
2023/04/08 06:17:00;;;;;;;8.23;7.03;;;;;;;6.19;100.00;96478.59;5009665;28;105103;-65
2023/04/08 06:19:27;;;;;;;8.57;6.87;;;;;;;6.18;100.00;96477.00;5044238;27;101696;-65
2023/04/08 06:21:57;;;;;;;7.10;6.50;;;;;;;6.17;100.00;96479.84;5043533;27;105483;-65
2023/04/08 06:24:26;;;;;;;8.20;7.30;;;;;;;6.13;100.00;96482.13;5009814;28;105377;-65
2023/04/08 06:26:53;;;;;;;8.30;7.40;;;;;;;6.15;100.00;96476.59;5010230;28;101892;-64
2023/04/08 06:29:22;;;;;;;7.97;7.23;;;;;;;6.15;100.00;96476.59;5009932;28;104849;-65
2023/04/08 06:31:50;;;;;;;8.00;7.20;;;;;;;6.15;100.00;96479.22;5009653;28;105321;-65
2023/04/08 06:34:33;;;;;;;9.90;7.30;;;;;;;6.21;100.00;96475.75;5010157;28;101928;-64
2023/04/08 06:37:00;;;;;;;8.70;7.80;;;;;;;6.25;100.00;96477.72;5012970;28;105366;-65
2023/04/08 06:39:27;;;;;;;8.77;7.63;;;;;;;6.27;100.00;96485.41;5010081;28;101873;-65
2023/04/08 06:41:54;;;;;;;9.53;8.63;;;;;;;6.36;100.00;96484.88;5010093;28;104946;-65
2023/04/08 06:44:44;;;;;;;9.73;8.53;;;;;;;6.33;100.00;96490.59;5009487;28;105454;-64
2023/04/08 06:47:11;;;;;;;11.70;8.53;;;;;;;6.34;100.00;96491.41;5009886;28;101834;-64
2023/04/08 06:49:40;;;;;;;10.67;8.23;;;;;;;6.35;100.00;96487.75;5009948;28;103967;-64
2023/04/08 06:52:07;;;;;;;10.13;9.10;;;;;;;6.45;100.00;96491.50;5005772;28;105550;-63
2023/04/08 06:54:38;;;;;;;9.63;8.10;;;;;;;6.42;100.00;96491.09;5007773;28;101946;-63
2023/04/08 06:57:05;;;;;;;10.40;7.90;;;;;;;6.44;100.00;96497.00;5009552;28;105005;-63
2023/04/08 06:59:32;;;;;;;9.50;8.50;;;;;;;6.48;100.00;96498.13;5013247;28;101877;-63
2023/04/08 07:02:01;;;;;;;10.97;8.67;;;;;;;6.53;100.00;96490.34;5010592;28;102383;-64
2023/04/08 07:04:54;;;;;;;9.40;8.50;;;;;;;6.55;100.00;96493.59;5008514;28;103800;-64
2023/04/08 07:07:23;;;;;;;10.70;9.30;;;;;;;6.55;100.00;96493.59;5009289;28;102132;-64
2023/04/08 07:09:50;;;;;;;10.00;8.73;;;;;;;6.58;100.00;96491.31;5007529;28;105366;-64
2023/04/08 07:12:17;;;;;;;9.57;8.50;;;;;;;6.58;100.00;96495.78;5007904;28;105177;-64
2023/04/08 07:14:56;;;;;;;11.10;10.00;;;;;;;6.54;100.00;96492.78;5009219;28;101915;-64
2023/04/08 07:17:25;;;;;;;12.57;10.03;;;;;;;6.54;100.00;96497.28;5009755;28;102820;-64
2023/04/08 07:19:52;;;;;;;11.80;10.60;;;;;;;6.50;100.00;96496.88;5010767;28;104005;-65
2023/04/08 07:22:19;;;;;;;10.90;9.80;;;;;;;6.50;100.00;96499.53;5007874;28;104958;-63
2023/04/08 07:24:56;;;;;;;12.63;10.93;;;;;;;6.55;100.00;96504.16;5015057;28;105168;-70
2023/04/08 07:27:23;;;;;;;13.33;10.80;;;;;;;6.50;100.00;96498.75;5008357;28;101822;-65
2023/04/08 07:29:53;;;;;;;12.30;11.00;;;;;;;6.53;100.00;96500.91;5008311;28;104897;-63
2023/04/08 07:32:20;;;;;;;14.63;11.50;;;;;;;6.55;100.00;96504.16;5007869;28;105023;-63
2023/04/08 07:35:30;;;;;;;13.27;11.57;;;;;;;6.60;100.00;96501.66;5008462;28;102477;-67
2023/04/08 07:37:59;;;;;;;14.63;11.27;;;;;;;6.58;100.00;96506.34;5026748;28;104916;-63
2023/04/08 07:40:26;;;;;;;13.10;11.13;;;;;;;6.63;100.00;96514.41;5027737;28;105536;-63
2023/04/08 07:43:01;;;;;;;13.97;12.47;;;;;;;6.69;100.00;96510.88;5017279;28;101991;-63
2023/04/08 07:45:27;;;;;;;14.10;12.47;;;;;;;6.68;100.00;96514.56;5009402;28;102585;-63
2023/04/08 07:47:54;;;;;;;16.10;12.93;;;;;;;6.64;100.00;96521.31;5022027;28;101837;-63
2023/04/08 07:50:21;;;;;;;15.40;13.00;;;;;;;6.52;100.00;96523.91;5009489;28;102287;-63
2023/04/08 07:52:52;;;;;;;16.10;13.97;;;;;;;6.53;100.00;96522.06;5026923;28;102561;-63
2023/04/08 07:55:20;;;;;;;14.70;13.17;;;;;;;6.50;100.00;96522.50;5028141;28;102079;-63
2023/04/08 07:57:47;;;;;;;15.67;13.40;;;;;;;6.38;100.00;96524.28;5027319;27;102426;-63
2023/04/08 08:00:19;;;;;;;17.30;14.73;;;;;;;6.40;100.00;96530.16;5008753;28;102471;-63
2023/04/08 08:02:48;;;;;;;17.73;15.17;;;;;;;6.41;100.00;96529.13;5010843;28;101991;-63
2023/04/08 08:05:15;;;;;;;17.30;14.93;;;;;;;6.44;100.00;96531.31;5032561;27;102269;-63
2023/04/08 08:07:42;;;;;;;18.67;14.93;;;;;;;6.32;100.00;96530.47;5029463;27;102050;-63
2023/04/08 08:10:10;;;;;;;18.57;15.87;;;;;;;6.44;100.00;96533.97;5027841;28;105570;-63
2023/04/08 08:12:38;;;;;;;18.53;15.73;;;;;;;6.34;100.00;96531.81;5028762;28;102614;-63
2023/04/08 08:15:08;;;;;;;19.03;15.70;;;;;;;6.39;100.00;96525.91;5028001;28;101908;-62
2023/04/08 08:17:35;;;;;;;19.03;16.80;;;;;;;6.36;100.00;96536.88;5025706;28;105134;-63
2023/04/08 08:20:03;;;;;;;19.27;16.13;;;;;;;6.31;100.00;96534.91;5006961;28;105302;-62
2023/04/08 08:22:30;;;;;;;18.80;16.23;;;;;;;6.26;100.00;96536.59;5010514;28;102038;-62
2023/04/08 08:25:11;;;;;;;20.07;16.70;;;;;;;6.19;100.00;96538.50;5011216;28;104875;-63
2023/04/08 08:27:41;;;;;;;22.20;17.87;;;;;;;6.24;100.00;96543.94;5023059;28;103091;-63
2023/04/08 08:30:09;;;;;;;20.63;16.73;;;;;;;6.19;100.00;96543.78;5030912;28;105666;-63
2023/04/08 08:32:36;;;;;;;19.97;17.07;;;;;;;6.13;100.00;96545.47;5021832;28;104386;-62
2023/04/08 08:35:15;;;;;;;21.87;18.30;;;;;;;6.19;100.00;96551.69;5012471;28;102032;-63
2023/04/08 08:37:42;;;;;;;22.57;17.97;;;;;;;6.02;100.00;96546.19;5029790;28;103544;-63
2023/04/08 08:40:10;;;;;;;23.80;19.20;;;;;;;6.04;100.00;96545.97;5030523;28;105253;-63
2023/04/08 08:42:39;;;;;;;21.13;17.27;;;;;;;5.98;100.00;96549.47;5032382;27;101852;-63
2023/04/08 08:45:08;;;;;;;19.23;16.40;;;;;;;6.01;100.00;96549.06;5065110;27;105367;-63
2023/04/08 08:47:35;;;;;;;19.97;15.70;;;;;;;5.98;100.00;96546.84;5030638;28;105300;-63
2023/04/08 08:50:03;;;;;;;18.37;15.97;;;;;;;5.93;100.00;96559.88;5034286;28;101877;-63
2023/04/08 08:52:30;;;;;;;18.83;15.67;;;;;;;6.00;100.00;96563.28;5030699;28;104051;-63
2023/04/08 08:55:00;;;;;;;17.93;15.80;;;;;;;5.90;100.00;96568.25;5016836;28;101941;-63
2023/04/08 08:57:27;;;;;;;18.57;15.23;;;;;;;5.86;100.00;96564.41;5010956;28;105324;-62
2023/04/08 08:59:55;;;;;;;16.07;14.30;;;;;;;5.70;100.00;96568.38;5029298;28;105592;-64
2023/04/08 09:02:27;;;;;;;16.93;15.13;;;;;;;5.80;100.00;96573.19;5030891;28;101933;-64
2023/04/08 09:05:00;;;;;;;17.90;14.90;;;;;;;5.77;100.00;96574.41;5030632;28;105792;-65
2023/04/08 09:07:28;;;;;;;19.80;16.20;;;;;;;5.77;100.00;96578.84;5030570;27;102678;-65
2023/04/08 09:09:56;;;;;;;19.47;15.30;;;;;;;5.78;100.00;96585.78;5033880;28;101917;-65
2023/04/08 09:12:24;;;;;;;18.30;15.67;;;;;;;5.75;100.00;96581.72;5029872;28;105621;-65
2023/04/08 09:15:13;;;;;;;18.17;16.17;;;;;;;5.84;100.00;96591.00;5024627;28;102088;-65
2023/04/08 09:17:41;;;;;;;19.13;16.20;;;;;;;5.97;100.00;96590.91;5005653;28;102967;-65
2023/04/08 09:20:10;;;;;;;17.73;15.93;;;;;;;6.08;100.00;96597.31;5009324;28;104076;-65
2023/04/08 09:22:59;;;;;;;22.67;17.73;;;;;;;6.10;100.00;96605.81;5011406;28;101998;-65
2023/04/08 09:25:28;;;;;;;19.63;16.93;;;;;;;5.97;100.00;96605.94;5008935;28;102315;-65
2023/04/08 09:27:55;;;;;;;20.33;17.47;;;;;;;5.88;100.00;96607.22;5023505;27;102560;-64
2023/04/08 09:30:27;;;;;;;17.90;16.07;;;;;;;5.83;100.00;96604.44;5013129;28;101996;-64
2023/04/08 09:32:56;;;;;;;19.87;16.73;;;;;;;5.72;100.00;96610.38;5030952;27;105022;-64
2023/04/08 09:35:24;;;;;;;18.73;15.90;;;;;;;5.57;100.00;96596.69;5031045;27;103447;-64
2023/04/08 09:37:51;;;;;;;19.40;16.83;;;;;;;5.56;100.00;96608.28;5029285;28;105254;-65
2023/04/08 09:40:18;;;;;;;19.87;16.23;;;;;;;5.54;100.00;96603.19;5029453;28;101799;-65
2023/04/08 09:42:49;;;;;;;18.37;15.97;;;;;;;5.36;100.00;96611.00;5031172;27;102757;-65
2023/04/08 09:45:18;;;;;;;18.37;15.20;;;;;;;5.33;100.00;96605.34;5029761;28;105632;-65
2023/04/08 09:47:56;;;;;;;20.23;16.90;;;;;;;5.25;100.00;96611.69;5029482;27;103830;-65
2023/04/08 09:50:28;;;;;;;19.53;15.87;;;;;;;5.28;100.00;96610.44;5029913;28;101862;-65
2023/04/08 09:53:01;;;;;;;20.67;17.53;;;;;;;5.33;100.00;96613.25;5031127;27;102563;-65
2023/04/08 09:55:33;;;;;;;19.20;16.67;;;;;;;5.42;100.00;96609.38;5032694;28;105325;-64
2023/04/08 09:58:04;;;;;;;19.60;16.73;;;;;;;5.46;100.00;96614.00;5030053;28;103948;-64
2023/04/08 10:00:36;;;;;;;22.07;17.30;;;;;;;5.52;100.00;96614.97;5029191;28;104154;-65
2023/04/08 10:03:10;;;;;;;21.57;16.97;;;;;;;5.44;100.00;96616.03;5029456;28;102085;-65
2023/04/08 10:05:38;;;;;;;18.60;16.57;;;;;;;5.53;100.00;96613.97;5031101;27;102276;-65
2023/04/08 10:08:07;;;;;;;20.03;16.93;;;;;;;5.68;100.00;96619.75;5030000;28;101948;-64
2023/04/08 10:10:35;;;;;;;21.73;17.57;;;;;;;5.72;100.00;96619.09;5029503;28;101893;-65
2023/04/08 10:13:03;;;;;;;21.30;17.60;;;;;;;5.73;100.00;96617.28;5030737;27;102862;-65
2023/04/08 10:15:31;;;;;;;18.90;16.60;;;;;;;5.76;100.00;96619.47;5028968;28;105661;-65
2023/04/08 10:18:28;;;;;;;20.73;17.53;;;;;;;5.65;100.00;96618.34;5032765;28;101873;-65
2023/04/08 10:20:57;;;;;;;19.60;17.53;;;;;;;5.81;100.00;96622.31;5028109;28;104233;-65
2023/04/08 10:23:54;;;;;;;22.07;18.23;;;;;;;5.58;100.00;96614.94;5030142;27;101680;-64
2023/04/08 10:26:40;;;;;;;19.33;17.00;;;;;;;5.58;100.00;96624.69;5030840;27;102284;-64
2023/04/08 10:29:42;;;;;;;20.00;17.27;;;;;;;5.86;100.00;96631.22;5030040;27;102552;-64
2023/04/08 10:32:27;;;;;;;23.30;18.87;;;;;;;5.72;100.00;96623.56;5027759;27;101735;-64
2023/04/08 10:34:54;;;;;;;21.30;17.37;;;;;;;5.60;100.00;96617.34;5030582;27;102293;-64
2023/04/08 10:37:23;;;;;;;19.87;16.77;;;;;;;5.59;100.00;96619.19;5030132;27;102460;-65
2023/04/08 10:39:51;;;;;;;19.90;17.67;;;;;;;5.78;100.00;96617.44;5030382;27;101839;-64
2023/04/08 10:42:18;;;;;;;23.53;19.40;;;;;;;5.83;100.00;96615.78;5033208;27;102553;-65
2023/04/08 10:44:46;;;;;;;21.80;19.10;;;;;;;5.77;100.00;96621.06;5029854;27;101687;-65
2023/04/08 10:47:14;;;;;;;21.37;19.10;;;;;;;6.02;100.00;96617.47;5028936;28;105630;-65
2023/04/08 10:49:42;;;;;;;18.90;16.53;;;;;;;5.96;100.00;96620.16;5029499;27;102524;-65
2023/04/08 10:52:09;;;;;;;21.07;17.73;;;;;;;6.17;100.00;96625.84;5030040;28;101935;-64
2023/04/08 10:54:47;;;;;;;19.77;17.67;;;;;;;6.08;100.00;96616.59;5028637;28;103952;-65
2023/04/08 10:57:14;;;;;;;19.30;17.20;;;;;;;6.00;100.00;96619.50;5029618;27;102489;-65
2023/04/08 10:59:41;;;;;;;22.37;18.03;;;;;;;6.14;100.00;96618.38;5028499;28;101842;-65
2023/04/08 11:02:13;;;;;;;22.90;18.07;;;;;;;6.20;100.00;96617.50;5028706;28;104009;-65
2023/04/08 11:04:42;;;;;;;20.97;18.37;;;;;;;6.16;100.00;96623.44;5031292;28;105915;-65
2023/04/08 11:07:09;;;;;;;22.90;18.93;;;;;;;6.36;100.00;96614.31;5028229;28;104812;-64
2023/04/08 11:09:36;;;;;;;21.03;18.43;;;;;;;6.29;100.00;96616.22;5028116;28;105728;-65
2023/04/08 11:12:04;;;;;;;21.83;18.17;;;;;;;6.24;100.00;96618.69;5028593;28;101982;-64
2023/04/08 11:14:32;;;;;;;21.00;18.73;;;;;;;6.07;100.00;96616.81;5028439;28;105006;-64
2023/04/08 11:17:00;;;;;;;20.43;17.13;;;;;;;5.81;100.00;96622.31;5029405;27;102474;-64
2023/04/08 11:19:30;;;;;;;23.17;19.07;;;;;;;5.87;100.00;96624.91;5028008;28;101958;-64
2023/04/08 11:21:58;;;;;;;19.73;17.60;;;;;;;5.74;100.00;96624.94;5028335;28;105139;-64
2023/04/08 11:24:26;;;;;;;20.80;18.53;;;;;;;5.61;100.00;96618.97;5031103;28;105203;-65
2023/04/08 11:26:54;;;;;;;22.80;19.33;;;;;;;5.64;100.00;96623.81;5028295;28;105143;-65
2023/04/08 11:29:22;;;;;;;24.03;19.67;;;;;;;5.73;100.00;96625.19;5027788;28;105051;-65
2023/04/08 11:31:51;;;;;;;21.33;19.00;;;;;;;5.77;100.00;96619.25;5028222;28;102163;-65
2023/04/08 11:34:23;;;;;;;22.97;20.20;;;;;;;5.81;100.00;96617.84;5027833;28;105471;-65